Time;durP1;ratioP1;P1;durP2;ratioP2;P2;SDS_P1;SDS_P2;PMS_P1;PMS_P2;Temp;Humidity;BMP_temperature;BMP_pressure;BME280_temperature;BME280_humidity;BME280_pressure;Samples;Min_cycle;Max_cycle;Signal;HPM_P1;HPM_P2
2021/05/29 00:01:24;;;;;;;8.63;4.40;;;13.10;91.90;;;;;;4992016;28;20048;-71
2021/05/29 00:04:08;;;;;;;5.22;3.70;;;13.10;92.00;;;;;;5027291;28;20617;-71
2021/05/29 00:06:52;;;;;;;6.80;3.97;;;13.00;92.20;;;;;;5011852;28;20073;-71
2021/05/29 00:09:37;;;;;;;8.75;4.30;;;13.00;92.40;;;;;;5009119;28;20025;-72
2021/05/29 00:12:21;;;;;;;7.15;4.22;;;12.90;92.30;;;;;;5017000;28;20020;-71
2021/05/29 00:15:06;;;;;;;5.10;3.53;;;12.80;92.40;;;;;;5018853;28;20049;-71
2021/05/29 00:17:50;;;;;;;;;;;12.90;92.40;;;;;;5012932;28;20112;-71
2021/05/29 00:20:40;;;;;;;5.72;3.42;;;12.90;92.40;;;;;;5008447;28;19917;-71
2021/05/29 00:23:24;;;;;;;4.85;3.75;;;12.80;92.40;;;;;;5031419;28;20044;-71
2021/05/29 00:26:08;;;;;;;6.35;4.20;;;12.80;92.70;;;;;;5022888;28;20044;-71
2021/05/29 00:28:52;;;;;;;6.25;3.97;;;12.70;92.70;;;;;;4995330;28;20034;-71
2021/05/29 00:31:36;;;;;;;8.27;4.60;;;12.60;92.90;;;;;;5010912;28;20041;-71
2021/05/29 00:34:20;;;;;;;7.13;5.18;;;12.70;92.90;;;;;;4999285;28;20442;-71
2021/05/29 00:37:04;;;;;;;10.20;4.65;;;12.60;93.10;;;;;;4994830;28;20030;-71
2021/05/29 00:39:48;;;;;;;8.45;5.45;;;12.60;93.00;;;;;;4999201;28;20112;-70
2021/05/29 00:42:14;;;;;;;8.35;5.15;;;12.60;93.10;;;;;;5021502;28;21364;-70
2021/05/29 00:44:58;;;;;;;7.22;5.28;;;12.60;93.20;;;;;;5021844;28;20040;-71
2021/05/29 00:47:42;;;;;;;11.25;5.35;;;12.60;93.30;;;;;;5034182;28;20079;-70
2021/05/29 00:50:27;;;;;;;8.13;5.18;;;12.50;93.20;;;;;;5018748;28;20482;-70
2021/05/29 00:53:11;;;;;;;10.35;5.82;;;12.60;93.20;;;;;;5017103;28;20128;-70
2021/05/29 00:55:56;;;;;;;9.80;5.55;;;12.50;93.30;;;;;;5015942;28;20104;-70
2021/05/29 00:58:41;;;;;;;10.77;5.65;;;12.40;93.50;;;;;;5013300;28;20080;-70
2021/05/29 01:01:25;;;;;;;8.70;5.18;;;12.40;93.40;;;;;;5014686;28;20064;-71
2021/05/29 01:04:09;;;;;;;8.95;5.32;;;12.40;93.40;;;;;;4996712;28;20034;-70
2021/05/29 01:06:53;;;;;;;11.23;5.22;;;12.40;93.50;;;;;;4999383;28;20044;-70
2021/05/29 01:09:39;;;;;;;10.40;6.28;;;12.40;93.60;;;;;;5014136;28;20402;-70
2021/05/29 01:12:23;;;;;;;9.45;5.30;;;12.40;94.00;;;;;;5013611;28;20036;-71
2021/05/29 01:15:08;;;;;;;7.90;5.18;;;12.30;93.80;;;;;;5025095;28;20070;-70
2021/05/29 01:17:52;;;;;;;9.88;5.28;;;12.30;93.80;;;;;;5011613;28;20033;-70
2021/05/29 01:20:38;;;;;;;8.48;5.32;;;12.30;93.80;;;;;;4995009;28;20132;-70
2021/05/29 01:23:22;;;;;;;10.00;5.63;;;12.20;93.90;;;;;;5020029;28;20037;-70
2021/05/29 01:26:07;;;;;;;13.20;5.93;;;12.20;93.90;;;;;;5027834;28;20041;-71
2021/05/29 01:28:55;;;;;;;10.00;5.87;;;12.20;94.00;;;;;;5012797;28;20041;-71
2021/05/29 01:31:39;;;;;;;11.32;6.38;;;12.10;94.00;;;;;;5013853;28;20569;-71
2021/05/29 01:34:23;;;;;;;9.90;5.25;;;12.10;94.10;;;;;;4995968;28;20438;-71
2021/05/29 01:37:07;;;;;;;7.72;5.60;;;12.10;94.20;;;;;;5000219;28;20084;-71
2021/05/29 01:39:52;;;;;;;8.63;5.57;;;12.10;94.30;;;;;;4994813;28;20043;-71
2021/05/29 01:42:38;;;;;;;9.85;5.70;;;12.00;94.20;;;;;;5013236;28;20382;-72
2021/05/29 01:45:25;;;;;;;10.52;6.07;;;12.00;94.40;;;;;;5014074;28;20092;-71
2021/05/29 01:48:10;;;;;;;7.70;5.18;;;12.00;94.50;;;;;;5013075;28;20050;-72
2021/05/29 01:50:54;;;;;;;8.02;5.25;;;12.00;94.60;;;;;;5013527;28;20064;-71
2021/05/29 01:53:39;;;;;;;8.32;4.63;;;11.90;94.50;;;;;;5015468;28;20132;-72
2021/05/29 01:56:23;;;;;;;8.82;4.32;;;11.90;94.70;;;;;;5014165;28;20500;-72
2021/05/29 01:59:07;;;;;;;7.38;5.15;;;11.90;94.60;;;;;;5015225;28;20040;-72
2021/05/29 02:01:51;;;;;;;7.93;4.57;;;11.90;94.80;;;;;;5017171;28;20410;-72
2021/05/29 02:04:35;;;;;;;9.32;4.82;;;11.90;94.90;;;;;;5010478;28;20129;-72
2021/05/29 02:07:19;;;;;;;9.10;5.25;;;11.80;95.00;;;;;;5011490;28;20081;-72
2021/05/29 02:10:04;;;;;;;9.48;4.88;;;11.80;95.10;;;;;;5013743;28;20174;-71
2021/05/29 02:12:49;;;;;;;;;;;11.80;95.20;;;;;;4997814;28;20714;-70
2021/05/29 02:15:35;;;;;;;10.40;5.00;;;11.80;94.90;;;;;;5021550;28;19916;-70
2021/05/29 02:18:20;;;;;;;7.90;4.38;;;11.70;95.10;;;;;;5012422;28;20528;-70
2021/05/29 02:21:07;;;;;;;9.25;5.15;;;11.70;95.20;;;;;;5013158;28;20040;-70
2021/05/29 02:23:51;;;;;;;8.70;4.53;;;11.70;95.30;;;;;;4999946;28;20088;-71
2021/05/29 02:26:35;;;;;;;7.75;4.53;;;11.70;95.20;;;;;;4996571;28;20052;-70
2021/05/29 02:29:19;;;;;;;8.57;5.03;;;11.70;95.30;;;;;;5012412;28;20096;-71
2021/05/29 02:32:04;;;;;;;8.23;5.10;;;11.70;95.40;;;;;;5012443;28;20614;-69
2021/05/29 02:34:48;;;;;;;6.28;4.47;;;11.70;95.30;;;;;;5013176;28;20122;-69
2021/05/29 02:37:32;;;;;;;7.05;5.07;;;11.70;95.40;;;;;;5011404;28;20061;-70
2021/05/29 02:40:16;;;;;;;12.32;5.13;;;11.80;95.30;;;;;;5013208;28;20079;-69
2021/05/29 02:43:00;;;;;;;13.63;5.57;;;11.80;95.30;;;;;;5011813;28;20121;-70
2021/05/29 02:45:45;;;;;;;9.73;5.28;;;11.70;95.70;;;;;;5011873;28;20101;-69
2021/05/29 02:48:29;;;;;;;9.70;5.35;;;11.70;95.50;;;;;;5012375;28;20040;-70
2021/05/29 02:51:12;;;;;;;8.45;5.25;;;11.70;95.60;;;;;;5016843;28;20078;-70
2021/05/29 02:53:56;;;;;;;11.95;5.45;;;11.70;95.60;;;;;;5016288;28;20061;-70
2021/05/29 02:56:41;;;;;;;8.63;5.10;;;11.60;95.70;;;;;;5013598;28;20033;-70
2021/05/29 02:59:25;;;;;;;12.48;5.75;;;11.60;95.80;;;;;;5012289;28;20092;-71
2021/05/29 03:02:10;;;;;;;9.60;5.65;;;11.70;95.80;;;;;;5015948;28;20045;-71
2021/05/29 03:04:54;;;;;;;8.73;5.55;;;11.60;95.90;;;;;;4997477;28;20064;-71
2021/05/29 03:07:39;;;;;;;10.68;5.00;;;11.70;95.90;;;;;;5008132;28;20041;-71
2021/05/29 03:10:24;;;;;;;7.03;4.72;;;11.70;95.90;;;;;;4993244;28;20395;-71
2021/05/29 03:13:08;;;;;;;8.43;5.90;;;11.70;95.80;;;;;;5010258;28;20100;-71
2021/05/29 03:15:53;;;;;;;10.27;5.70;;;11.70;95.80;;;;;;5018372;28;20401;-70
2021/05/29 03:18:37;;;;;;;8.25;5.68;;;11.70;96.10;;;;;;5011994;28;20045;-70
2021/05/29 03:21:21;;;;;;;9.93;5.38;;;11.60;95.90;;;;;;5013027;28;20057;-71
2021/05/29 03:24:05;;;;;;;8.05;5.03;;;11.60;96.10;;;;;;5012682;28;20139;-71
2021/05/29 03:26:49;;;;;;;12.18;6.03;;;11.60;96.20;;;;;;5025854;28;20396;-71
2021/05/29 03:29:33;;;;;;;12.00;6.13;;;11.50;96.10;;;;;;5014171;28;20032;-71
2021/05/29 03:32:17;;;;;;;11.38;5.63;;;11.50;96.30;;;;;;5027755;28;20119;-71
2021/05/29 03:35:01;;;;;;;12.43;5.70;;;11.50;96.20;;;;;;4998121;28;20523;-71
2021/05/29 03:37:46;;;;;;;9.00;6.45;;;11.50;96.40;;;;;;5009153;28;20080;-71
2021/05/29 03:40:30;;;;;;;12.40;5.93;;;11.50;96.50;;;;;;4999760;28;20102;-71
2021/05/29 03:43:14;;;;;;;12.13;6.10;;;11.50;96.30;;;;;;5009729;28;20049;-71
2021/05/29 03:45:58;;;;;;;12.82;5.60;;;11.50;96.30;;;;;;4997524;28;20076;-71
2021/05/29 03:48:42;;;;;;;9.43;5.95;;;11.50;96.40;;;;;;4992892;28;20518;-71
2021/05/29 03:51:26;;;;;;;11.07;6.25;;;11.50;96.40;;;;;;5032529;28;20117;-71
2021/05/29 03:54:10;;;;;;;13.88;6.45;;;11.50;96.40;;;;;;5017587;28;20528;-71
2021/05/29 03:56:55;;;;;;;8.47;6.33;;;11.50;96.40;;;;;;5032476;28;20040;-71
2021/05/29 03:59:39;;;;;;;11.80;7.55;;;11.50;96.40;;;;;;5012106;28;20407;-71
2021/05/29 04:02:23;;;;;;;11.65;6.93;;;11.50;96.50;;;;;;5005260;28;20049;-71
2021/05/29 04:05:08;;;;;;;11.23;7.00;;;11.50;96.60;;;;;;5013197;28;20041;-71
2021/05/29 04:07:52;;;;;;;;;;;11.50;96.50;;;;;;5010244;28;20560;-71
2021/05/29 04:10:37;;;;;;;15.90;7.72;;;11.60;96.40;;;;;;4992386;28;20270;-71
2021/05/29 04:13:21;;;;;;;;;;;11.60;96.50;;;;;;5011882;28;20061;-71
2021/05/29 04:16:05;;;;;;;13.02;6.88;;;11.60;96.60;;;;;;5011823;28;19917;-71
2021/05/29 04:18:50;;;;;;;14.57;7.55;;;11.60;96.60;;;;;;5009989;28;20049;-70
2021/05/29 04:21:34;;;;;;;15.32;7.15;;;11.70;96.70;;;;;;5011799;28;20103;-71
2021/05/29 04:24:18;;;;;;;14.35;7.82;;;11.70;96.70;;;;;;4992836;28;20105;-69
2021/05/29 04:27:03;;;;;;;12.98;7.32;;;11.70;96.70;;;;;;4996465;28;20029;-69
2021/05/29 04:29:47;;;;;;;13.60;7.30;;;11.80;96.70;;;;;;5010981;28;20053;-69
2021/05/29 04:32:31;;;;;;;14.80;8.55;;;11.90;96.70;;;;;;5010505;28;20032;-69
2021/05/29 04:35:16;;;;;;;14.13;7.53;;;11.90;96.70;;;;;;5011730;28;20033;-65
2021/05/29 04:38:00;;;;;;;15.20;8.48;;;12.00;96.60;;;;;;5015914;28;20063;-67
2021/05/29 04:40:45;;;;;;;12.18;8.00;;;11.90;96.60;;;;;;5011239;28;20080;-68
2021/05/29 04:43:28;;;;;;;15.63;7.93;;;12.00;96.70;;;;;;5001101;28;20133;-68
2021/05/29 04:46:12;;;;;;;13.25;7.47;;;12.00;96.60;;;;;;5015688;28;20124;-69
2021/05/29 04:48:56;;;;;;;13.15;7.30;;;12.00;96.50;;;;;;5000621;28;20410;-69
2021/05/29 04:51:40;;;;;;;14.07;7.15;;;12.00;96.60;;;;;;5022472;28;20087;-69
2021/05/29 04:54:26;;;;;;;14.35;8.07;;;12.00;96.50;;;;;;5003123;28;20065;-69
2021/05/29 04:57:10;;;;;;;15.00;8.02;;;12.10;96.50;;;;;;5021217;28;20481;-69
2021/05/29 04:59:54;;;;;;;16.95;9.43;;;12.10;96.40;;;;;;4999377;28;20129;-70
2021/05/29 05:02:38;;;;;;;17.50;9.15;;;12.10;96.50;;;;;;4993648;28;20102;-71
2021/05/29 05:05:22;;;;;;;16.60;10.77;;;12.20;96.80;;;;;;5010005;28;20037;-69
2021/05/29 05:08:06;;;;;;;20.50;11.95;;;12.20;96.50;;;;;;5010573;28;20041;-69
2021/05/29 05:10:33;;;;;;;26.15;16.02;;;12.20;96.30;;;;;;4996409;28;20030;-69
2021/05/29 05:13:18;;;;;;;22.52;12.70;;;12.30;96.30;;;;;;5004047;28;20044;-69
2021/05/29 05:16:02;;;;;;;18.05;11.82;;;12.30;96.00;;;;;;5014633;28;20513;-69
2021/05/29 05:18:46;;;;;;;17.33;10.43;;;12.20;96.00;;;;;;5012259;28;20429;-69
2021/05/29 05:21:30;;;;;;;15.13;9.27;;;12.20;96.00;;;;;;5014845;28;20037;-69
2021/05/29 05:24:14;;;;;;;15.57;8.98;;;12.20;96.10;;;;;;5013747;28;20036;-70
2021/05/29 05:26:59;;;;;;;12.80;8.50;;;12.00;96.10;;;;;;5011561;28;20080;-70
2021/05/29 05:29:43;;;;;;;14.88;8.75;;;12.00;96.20;;;;;;5014328;28;20544;-69
2021/05/29 05:32:27;;;;;;;11.65;7.90;;;12.00;96.10;;;;;;5013360;28;20044;-72
2021/05/29 05:35:14;;;;;;;14.20;8.07;;;11.90;96.30;;;;;;5019453;28;20108;-70
2021/05/29 05:37:59;;;;;;;15.52;8.80;;;11.90;96.30;;;;;;5012931;28;20045;-71
2021/05/29 05:40:43;;;;;;;14.68;8.10;;;11.80;96.50;;;;;;5006193;28;20517;-70
2021/05/29 05:43:27;;;;;;;14.55;8.25;;;11.80;96.40;;;;;;5004241;28;20108;-70
2021/05/29 05:46:12;;;;;;;14.88;8.50;;;11.80;96.50;;;;;;5017886;28;20036;-69
2021/05/29 05:48:57;;;;;;;13.40;8.13;;;11.80;96.50;;;;;;5012260;28;20040;-69
2021/05/29 05:51:41;;;;;;;12.88;7.00;;;11.90;96.60;;;;;;5014760;28;20395;-68
2021/05/29 05:54:26;;;;;;;12.25;8.20;;;11.90;96.60;;;;;;5015670;28;20079;-67
2021/05/29 05:57:10;;;;;;;12.65;7.80;;;12.00;96.60;;;;;;5016899;28;20508;-69
2021/05/29 05:59:54;;;;;;;14.40;9.23;;;12.00;96.50;;;;;;5009303;28;20116;-69
2021/05/29 06:02:38;;;;;;;14.50;8.23;;;12.10;96.60;;;;;;5015030;28;20115;-69
2021/05/29 06:05:22;;;;;;;14.07;8.43;;;12.00;96.50;;;;;;5006862;28;20073;-68
2021/05/29 06:08:06;;;;;;;18.48;9.05;;;12.00;96.50;;;;;;5001054;28;20410;-69
2021/05/29 06:10:51;;;;;;;14.90;8.50;;;12.10;96.80;;;;;;5021582;28;20040;-68
2021/05/29 06:19:26;;;;;;;20.08;13.27;;;12.50;96.60;;;;;;5012181;28;20060;-68
2021/05/29 06:22:10;;;;;;;25.15;14.68;;;12.60;96.50;;;;;;5010017;28;20041;-69
2021/05/29 06:24:54;;;;;;;23.25;13.43;;;12.80;96.40;;;;;;5004502;28;20045;-69
2021/05/29 06:27:39;;;;;;;18.30;11.63;;;12.90;96.20;;;;;;5012467;28;20092;-69
2021/05/29 06:30:23;;;;;;;23.30;13.63;;;13.00;95.90;;;;;;5036912;28;20032;-68
2021/05/29 06:33:07;;;;;;;20.73;13.55;;;13.00;95.80;;;;;;5015939;28;20812;-68
2021/05/29 06:35:51;;;;;;;23.23;13.20;;;13.10;95.80;;;;;;5026984;28;20125;-70
2021/05/29 06:38:36;;;;;;;22.80;13.60;;;13.10;95.80;;;;;;5007117;28;20092;-68
2021/05/29 06:41:20;;;;;;;22.65;13.88;;;13.20;95.90;;;;;;5009929;28;20076;-69
2021/05/29 06:44:04;;;;;;;19.58;12.50;;;13.30;95.80;;;;;;5010844;28;20065;-68
2021/05/29 06:46:48;;;;;;;19.60;11.00;;;13.40;95.70;;;;;;5007548;28;20568;-68
2021/05/29 06:49:35;;;;;;;19.00;10.82;;;13.50;95.40;;;;;;5012643;28;20040;-68
2021/05/29 06:52:22;;;;;;;18.27;11.13;;;13.50;95.30;;;;;;5010231;28;20096;-68
2021/05/29 07:01:13;;;;;;;16.88;10.73;;;13.60;94.90;;;;;;4994666;28;20037;-68
2021/05/29 07:03:58;;;;;;;17.65;12.15;;;13.70;94.70;;;;;;5004500;28;20071;-68
2021/05/29 07:06:42;;;;;;;15.68;11.63;;;13.70;94.50;;;;;;5005302;28;20569;-68
2021/05/29 07:09:26;;;;;;;21.95;10.95;;;13.80;94.40;;;;;;4999768;28;20119;-68
2021/05/29 07:12:10;;;;;;;17.38;10.65;;;13.90;94.30;;;;;;4993003;28;20437;-69
2021/05/29 07:14:54;;;;;;;16.08;9.68;;;14.00;94.50;;;;;;5000652;28;20418;-68
2021/05/29 07:17:41;;;;;;;14.68;9.13;;;14.00;94.00;;;;;;5008978;28;20064;-68
2021/05/29 07:20:25;;;;;;;15.45;8.32;;;14.10;94.20;;;;;;4992853;28;20033;-69
2021/05/29 07:23:09;;;;;;;12.98;8.88;;;14.20;94.00;;;;;;5000640;28;20045;-68
2021/05/29 07:25:54;;;;;;;13.10;8.88;;;14.40;93.80;;;;;;4992715;28;20033;-69
2021/05/29 07:28:39;;;;;;;19.25;9.10;;;14.50;93.50;;;;;;4996063;28;20041;-69
2021/05/29 07:31:23;;;;;;;13.23;8.75;;;14.60;93.20;;;;;;5008718;28;20072;-69
2021/05/29 07:34:07;;;;;;;15.68;8.30;;;14.70;92.50;;;;;;5003175;28;20526;-69
2021/05/29 07:36:52;;;;;;;13.10;8.00;;;14.80;92.90;;;;;;4994953;28;20390;-69
2021/05/29 07:39:36;;;;;;;13.32;7.32;;;15.00;92.50;;;;;;5008794;28;20036;-69
2021/05/29 07:42:20;;;;;;;11.32;7.68;;;15.00;92.20;;;;;;5006818;28;20036;-69
2021/05/29 07:45:05;;;;;;;14.63;7.60;;;15.20;92.20;;;;;;5023412;28;20104;-68
2021/05/29 07:47:49;;;;;;;9.93;6.75;;;15.30;92.10;;;;;;5012891;28;20060;-68
2021/05/29 07:50:34;;;;;;;13.15;7.40;;;15.40;91.90;;;;;;5005302;28;20497;-66
2021/05/29 07:53:18;;;;;;;11.75;6.53;;;15.60;91.50;;;;;;5001687;28;20559;-66
2021/05/29 07:56:08;;;;;;;13.27;7.00;;;15.70;91.40;;;;;;4997813;28;20049;-66
2021/05/29 07:58:53;;;;;;;11.50;7.03;;;15.70;90.70;;;;;;5010584;28;20040;-66
2021/05/29 08:01:37;;;;;;;14.35;7.00;;;15.60;90.60;;;;;;5022573;28;20098;-67
2021/05/29 08:04:21;;;;;;;11.35;6.57;;;15.60;90.40;;;;;;5009474;28;20574;-67
2021/05/29 08:07:05;;;;;;;11.98;7.07;;;15.70;90.50;;;;;;5010800;28;20517;-67
2021/05/29 08:09:49;;;;;;;12.67;6.33;;;15.70;90.50;;;;;;4991645;28;20056;-67
2021/05/29 08:12:33;;;;;;;12.90;5.97;;;15.90;90.60;;;;;;4996609;28;20092;-66
2021/05/29 08:15:17;;;;;;;9.20;5.63;;;15.90;90.20;;;;;;5011776;28;20485;-67
2021/05/29 08:18:01;;;;;;;11.60;6.10;;;16.00;89.70;;;;;;5005902;28;20606;-67
2021/05/29 08:20:46;;;;;;;12.17;6.20;;;16.00;89.20;;;;;;5011151;28;20454;-67
2021/05/29 08:23:31;;;;;;;11.25;6.15;;;16.00;89.10;;;;;;5010310;28;20044;-67
2021/05/29 08:26:15;;;;;;;9.93;5.35;;;16.00;89.20;;;;;;5011617;28;20447;-67
2021/05/29 08:28:59;;;;;;;7.45;5.55;;;16.10;89.50;;;;;;5009653;28;20095;-66
2021/05/29 08:31:43;;;;;;;11.10;6.18;;;16.10;88.70;;;;;;5010182;28;20391;-67
2021/05/29 08:34:27;;;;;;;9.40;5.85;;;16.20;88.80;;;;;;5005281;28;20326;-67
2021/05/29 08:37:11;;;;;;;10.15;6.10;;;16.30;88.80;;;;;;4991132;28;20077;-66
2021/05/29 08:39:55;;;;;;;12.02;5.65;;;16.40;88.40;;;;;;4991589;28;20037;-66
2021/05/29 08:42:42;;;;;;;10.20;5.78;;;16.50;87.00;;;;;;4997414;28;20088;-66
2021/05/29 08:45:26;;;;;;;8.02;4.50;;;16.50;87.10;;;;;;5025202;28;20390;-67
2021/05/29 08:48:11;;;;;;;7.07;4.93;;;16.50;86.80;;;;;;5012486;28;20119;-67
2021/05/29 08:51:14;;;;;;;8.45;5.03;;;16.60;86.70;;;;;;5000086;28;20088;-66
2021/05/29 08:53:59;;;;;;;8.75;4.63;;;16.60;86.30;;;;;;5008574;28;20037;-67
2021/05/29 08:56:44;;;;;;;14.23;6.22;;;16.60;85.80;;;;;;5015015;28;20032;-66
2021/05/29 08:59:27;;;;;;;8.70;4.75;;;16.70;85.30;;;;;;4998361;28;20040;-66
2021/05/29 09:02:12;;;;;;;8.18;4.65;;;16.70;85.50;;;;;;4999000;28;20049;-66
2021/05/29 09:05:05;;;;;;;9.20;4.90;;;16.60;84.70;;;;;;4999731;28;20028;-66
2021/05/29 09:08:02;;;;;;;9.68;4.68;;;16.60;84.80;;;;;;5013557;28;20133;-66
2021/05/29 09:10:50;;;;;;;9.20;4.97;;;16.60;84.10;;;;;;5006155;28;20045;-66
2021/05/29 09:13:34;;;;;;;8.75;4.38;;;16.60;84.50;;;;;;5004328;28;20092;-67
2021/05/29 09:16:18;;;;;;;14.32;5.82;;;16.70;84.70;;;;;;5005945;28;20046;-66
2021/05/29 09:19:03;;;;;;;7.43;4.85;;;16.80;84.60;;;;;;5006365;28;20061;-66
2021/05/29 09:21:47;;;;;;;6.78;4.97;;;16.80;83.60;;;;;;4997980;28;20100;-66
2021/05/29 09:24:31;;;;;;;9.30;5.55;;;16.80;83.90;;;;;;4994588;28;20409;-66
2021/05/29 09:27:15;;;;;;;7.85;4.65;;;16.80;83.30;;;;;;4994446;28;20084;-66
2021/05/29 09:30:01;;;;;;;10.07;5.55;;;16.90;83.90;;;;;;4994640;28;20517;-66
2021/05/29 09:32:45;;;;;;;10.38;5.90;;;17.00;82.80;;;;;;5010690;28;20397;-66
2021/05/29 09:35:30;;;;;;;7.70;5.18;;;17.10;82.90;;;;;;4999899;28;20069;-66
2021/05/29 09:38:15;;;;;;;11.00;5.63;;;17.20;83.70;;;;;;5015101;28;20774;-66
2021/05/29 09:40:59;;;;;;;7.75;4.95;;;17.30;82.70;;;;;;4998079;28;20401;-66
2021/05/29 09:43:56;;;;;;;9.38;5.65;;;17.40;82.10;;;;;;5008241;28;20445;-66
2021/05/29 09:46:51;;;;;;;12.45;5.65;;;17.50;81.10;;;;;;5012086;28;20045;-66
2021/05/29 09:49:53;;;;;;;8.77;5.43;;;17.50;80.00;;;;;;5006223;28;20085;-66
2021/05/29 09:52:40;;;;;;;11.82;5.25;;;17.50;80.60;;;;;;4999049;28;20130;-67
2021/05/29 09:55:37;;;;;;;7.63;5.32;;;17.60;80.70;;;;;;5010919;28;20041;-66
2021/05/29 09:58:21;;;;;;;11.18;6.25;;;17.70;80.30;;;;;;5012694;28;20052;-67
2021/05/29 10:01:05;;;;;;;10.15;5.45;;;17.80;79.00;;;;;;5000746;28;20422;-67
2021/05/29 10:03:50;;;;;;;7.05;4.78;;;17.80;79.20;;;;;;4997192;28;20105;-67
2021/05/29 10:06:34;;;;;;;;;;;17.80;78.60;;;;;;4993650;28;20037;-67
2021/05/29 10:09:18;;;;;;;12.50;5.70;;;17.80;77.40;;;;;;5011061;28;20328;-67
2021/05/29 10:12:04;;;;;;;9.68;5.25;;;17.70;77.80;;;;;;5011316;28;20501;-67
2021/05/29 10:14:49;;;;;;;10.18;6.00;;;17.80;78.30;;;;;;5005596;28;20153;-67
2021/05/29 10:17:33;;;;;;;7.32;5.30;;;17.80;78.10;;;;;;5003161;28;20137;-67
2021/05/29 10:20:18;;;;;;;9.57;5.70;;;17.80;78.10;;;;;;5006329;28;20088;-68
2021/05/29 10:23:05;;;;;;;11.82;7.38;;;17.80;77.70;;;;;;5007738;28;20553;-67
2021/05/29 10:25:50;;;;;;;9.85;5.35;;;17.90;77.20;;;;;;4999223;28;20049;-67
2021/05/29 10:28:34;;;;;;;10.30;6.43;;;18.00;76.70;;;;;;5008182;28;22526;-66
2021/05/29 10:31:19;;;;;;;8.90;5.85;;;18.00;76.90;;;;;;5012172;28;20280;-67
2021/05/29 10:34:06;;;;;;;10.10;5.28;;;18.10;76.80;;;;;;5010189;28;20234;-67
2021/05/29 10:36:59;;;;;;;12.32;5.28;;;18.20;76.40;;;;;;5010152;28;20037;-67
2021/05/29 10:39:44;;;;;;;11.07;6.15;;;18.40;77.10;;;;;;5012829;28;20064;-67
2021/05/29 10:42:30;;;;;;;8.55;5.15;;;18.40;76.40;;;;;;5008962;28;20111;-67
2021/05/29 10:45:25;;;;;;;7.38;5.15;;;18.30;75.60;;;;;;5009636;28;20107;-67
2021/05/29 10:48:15;;;;;;;8.73;4.80;;;18.30;75.80;;;;;;5011311;28;20088;-67
2021/05/29 10:51:11;;;;;;;8.77;5.13;;;18.40;75.80;;;;;;5012705;28;20034;-67
2021/05/29 10:53:56;;;;;;;12.15;6.15;;;18.40;74.40;;;;;;5011154;28;20117;-68
2021/05/29 10:56:40;;;;;;;10.02;4.78;;;18.40;74.30;;;;;;5008090;28;20505;-67
2021/05/29 10:59:35;;;;;;;8.53;5.80;;;18.40;75.00;;;;;;5006391;28;20044;-67
2021/05/29 11:02:20;;;;;;;8.32;4.82;;;18.40;74.70;;;;;;5004145;28;20544;-67
2021/05/29 11:05:31;;;;;;;9.00;4.97;;;18.40;74.00;;;;;;4997517;28;20033;-67
2021/05/29 11:08:43;;;;;;;10.20;5.60;;;18.40;73.90;;;;;;5003788;28;20171;-68
2021/05/29 11:11:31;;;;;;;12.02;5.80;;;18.50;73.40;;;;;;5005391;28;20124;-67
2021/05/29 11:14:20;;;;;;;9.38;5.95;;;18.50;72.80;;;;;;5009012;28;20052;-67
2021/05/29 11:17:09;;;;;;;11.45;5.78;;;18.40;73.00;;;;;;5012659;28;20096;-68
2021/05/29 11:20:01;;;;;;;8.10;5.43;;;18.30;73.20;;;;;;5010219;28;20056;-68
2021/05/29 11:22:48;;;;;;;11.50;5.90;;;18.40;73.60;;;;;;5010036;28;20116;-67
2021/05/29 11:25:40;;;;;;;13.30;5.82;;;18.50;73.00;;;;;;4995376;28;20037;-67
2021/05/29 11:28:24;;;;;;;8.55;5.05;;;18.60;73.20;;;;;;4993991;28;20029;-68
2021/05/29 11:31:08;;;;;;;9.50;5.40;;;18.60;72.10;;;;;;4998034;28;20041;-66
2021/05/29 11:33:54;;;;;;;10.02;6.22;;;18.60;72.50;;;;;;5013188;28;20410;-66
2021/05/29 11:36:41;;;;;;;9.40;5.30;;;18.50;71.80;;;;;;4996653;28;20588;-67
2021/05/29 11:39:25;;;;;;;9.55;5.93;;;18.60;72.80;;;;;;4999884;28;20045;-66
2021/05/29 11:42:09;;;;;;;7.50;4.73;;;18.50;71.30;;;;;;4999679;28;20056;-66
2021/05/29 11:45:13;;;;;;;13.70;5.80;;;18.40;71.90;;;;;;5008647;28;20125;-66
2021/05/29 11:47:58;;;;;;;8.75;5.80;;;18.50;72.20;;;;;;5014584;28;20044;-67
2021/05/29 11:50:42;;;;;;;6.57;5.10;;;18.40;72.20;;;;;;5010913;28;20037;-67
2021/05/29 11:53:26;;;;;;;8.23;4.90;;;18.40;70.90;;;;;;5002735;28;20085;-67
2021/05/29 11:56:11;;;;;;;14.70;5.60;;;18.30;70.80;;;;;;5009299;28;20040;-66
2021/05/29 11:58:55;;;;;;;8.90;5.45;;;18.30;70.70;;;;;;5001790;28;20037;-67
2021/05/29 12:01:43;;;;;;;13.27;5.78;;;18.30;70.80;;;;;;4997669;28;20096;-67
2021/05/29 12:04:29;;;;;;;10.15;5.60;;;18.30;70.60;;;;;;5008004;28;20045;-67
2021/05/29 12:07:13;;;;;;;8.40;5.60;;;18.40;70.90;;;;;;4993687;28;20041;-67
2021/05/29 12:09:57;;;;;;;6.93;4.73;;;18.30;70.30;;;;;;5002472;28;20053;-67
2021/05/29 12:12:41;;;;;;;8.98;5.80;;;18.20;70.90;;;;;;4998729;28;20096;-68
2021/05/29 12:15:25;;;;;;;9.48;5.60;;;18.30;71.40;;;;;;5007144;28;20049;-67
2021/05/29 12:18:10;;;;;;;8.13;6.03;;;18.50;71.60;;;;;;5008313;28;20033;-67
2021/05/29 12:20:56;;;;;;;9.90;5.78;;;18.60;71.60;;;;;;5009935;28;20041;-67
2021/05/29 12:23:51;;;;;;;10.48;6.15;;;18.60;71.30;;;;;;5009571;28;20100;-67
2021/05/29 12:26:35;;;;;;;;;;;18.50;70.80;;;;;;5008260;28;20040;-67
2021/05/29 12:29:24;;;;;;;9.23;6.20;;;18.50;70.80;;;;;;5007146;28;20831;-67
2021/05/29 12:32:10;;;;;;;8.55;6.38;;;18.40;70.80;;;;;;5005705;28;20093;-68
2021/05/29 12:34:54;;;;;;;7.95;5.55;;;18.50;71.30;;;;;;5012771;28;20164;-66
2021/05/29 12:37:38;;;;;;;8.25;5.75;;;18.60;70.50;;;;;;5014529;28;20409;-68
2021/05/29 12:40:24;;;;;;;8.05;5.13;;;18.60;70.60;;;;;;5010758;28;20044;-68
2021/05/29 12:43:14;;;;;;;7.60;5.28;;;18.70;70.80;;;;;;4998137;28;20041;-68
2021/05/29 12:45:58;;;;;;;9.38;5.72;;;18.80;70.70;;;;;;5015042;28;20040;-67
2021/05/29 12:49:01;;;;;;;7.03;4.73;;;18.90;68.20;;;;;;5006785;28;20041;-68
2021/05/29 12:51:46;;;;;;;9.57;5.78;;;19.00;69.60;;;;;;5008793;28;20033;-69
2021/05/29 12:54:46;;;;;;;10.43;5.00;;;19.20;69.30;;;;;;5012876;28;20092;-69
2021/05/29 12:57:39;;;;;;;9.95;5.57;;;19.40;68.00;;;;;;5002038;28;20040;-69
2021/05/29 13:00:29;;;;;;;7.97;4.53;;;19.50;68.20;;;;;;5009215;28;20759;-69
2021/05/29 13:09:27;;;;;;;6.78;5.03;;;19.90;66.60;;;;;;5012237;28;20028;-72
2021/05/29 13:12:12;;;;;;;10.60;5.43;;;19.80;66.30;;;;;;5001843;28;20092;-73
2021/05/29 13:14:57;;;;;;;9.70;5.20;;;19.60;65.00;;;;;;5008480;28;20398;-70
2021/05/29 13:17:41;;;;;;;9.38;5.70;;;19.30;65.00;;;;;;5012670;28;20052;-72
2021/05/29 13:20:25;;;;;;;8.88;5.57;;;19.20;66.80;;;;;;5010478;28;20109;-72
2021/05/29 13:23:11;;;;;;;8.50;5.50;;;19.10;67.10;;;;;;5009802;28;20025;-71
2021/05/29 13:26:05;;;;;;;7.40;4.72;;;19.20;67.30;;;;;;5014463;28;20037;-71
2021/05/29 13:28:51;;;;;;;7.82;4.90;;;19.20;67.20;;;;;;5004334;28;20036;-72
2021/05/29 13:31:35;;;;;;;;;;;19.30;67.00;;;;;;4994918;28;20041;-72
2021/05/29 13:34:19;;;;;;;6.47;4.45;;;19.50;66.30;;;;;;5002628;28;20293;-72
2021/05/29 13:37:04;;;;;;;6.72;4.55;;;19.60;66.30;;;;;;5006573;28;20068;-72
2021/05/29 13:39:50;;;;;;;8.80;4.55;;;19.50;66.30;;;;;;5005410;28;20552;-71
2021/05/29 13:42:34;;;;;;;8.60;4.78;;;19.70;66.90;;;;;;5008455;28;20196;-71
2021/05/29 13:45:21;;;;;;;;;;;19.80;66.00;;;;;;5013592;28;20326;-71
2021/05/29 13:48:08;;;;;;;11.15;4.90;;;19.80;65.70;;;;;;5002889;28;19939;-71
2021/05/29 13:50:53;;;;;;;8.57;5.05;;;19.80;65.60;;;;;;5009610;28;20034;-71
2021/05/29 13:53:37;;;;;;;7.97;5.55;;;19.80;65.30;;;;;;5005260;28;20084;-70
2021/05/29 13:56:21;;;;;;;8.73;5.60;;;19.90;65.60;;;;;;5001466;28;20367;-71
2021/05/29 13:59:05;;;;;;;7.43;4.80;;;20.00;65.40;;;;;;4996330;28;20041;-71
2021/05/29 14:01:50;;;;;;;8.45;5.13;;;20.10;64.90;;;;;;5011579;28;20501;-71
2021/05/29 14:04:34;;;;;;;7.93;4.75;;;20.20;63.60;;;;;;5018638;28;20044;-68
2021/05/29 14:07:20;;;;;;;8.63;5.20;;;20.20;64.40;;;;;;5010432;28;20076;-70
2021/05/29 14:10:06;;;;;;;6.60;4.32;;;20.30;64.30;;;;;;4994948;28;20060;-70
2021/05/29 14:12:51;;;;;;;7.90;4.82;;;20.40;63.90;;;;;;5022759;28;20432;-70
2021/05/29 14:15:35;;;;;;;7.22;5.07;;;20.50;63.10;;;;;;5007684;28;20052;-70
2021/05/29 14:18:19;;;;;;;6.53;4.90;;;20.60;63.60;;;;;;5002496;28;20085;-71
2021/05/29 14:21:03;;;;;;;6.57;4.67;;;20.70;62.50;;;;;;5001064;28;20287;-71
2021/05/29 14:23:48;;;;;;;8.82;4.38;;;20.70;61.60;;;;;;5004700;28;20128;-71
2021/05/29 14:26:32;;;;;;;7.25;5.32;;;20.90;62.50;;;;;;4998128;28;20137;-72
2021/05/29 14:29:16;;;;;;;7.18;4.55;;;21.00;61.80;;;;;;5007582;28;20040;-71
2021/05/29 14:32:00;;;;;;;8.05;4.88;;;21.10;61.40;;;;;;5001471;28;20049;-72
2021/05/29 14:34:44;;;;;;;7.22;3.80;;;21.20;61.50;;;;;;5010725;28;20048;-71